Silver Shadow — C6FN6 — position and weather

sailwx.info

Track history (hours):
 
Tides and Currents Weather Stations Pressure Air Temp Water Temp Dewpoint Dewpoint Depression Visibility Wind Speed Wind Dir Waves Ship Positions

Silver Shadow

Operator: V Ships Leisure SAM

Last reported at 2020-Aug-07 22:00 UTC. Time now 2020-Aug-09 04:47 UTC.
Position N 42°25' E 004°09'.

Length 186 m; draft 6.2 m.

Type: Ship. MMSI: 308628000.

Date/timePositionNaut miles runAvg speedWind from/ knotsBaromVisibWave heightAir tempDewpointWater temp
2020-Aug-07 22:00N 42°25' E 004°09'2510.1
2020-Aug-07 19:30N 42°08' E 003°45'3010.0
2020-Aug-07 16:29N 41°46' E 003°16'2510.3
2020-Aug-07 14:00N 41°33' E 002°47'1010.1
2020-Aug-07 13:00N 41°28' E 002°36'510.1
2020-Aug-07 12:30N 41°25' E 002°30'16 8.0
2020-Aug-07 10:30N 41°20' E 002°10'2 2.4
2020-Aug-07 09:40N 41°22' E 002°11'0 0.0
2020-Aug-07 06:28N 41°22' E 002°11'0 0.0
2020-Aug-07 05:01N 41°22' E 002°11'1 2.5
2020-Aug-07 04:31N 41°21' E 002°10'3 6.6
2020-Aug-07 04:01N 41°17' E 002°11'4 7.8
2020-Aug-07 03:31N 41°18' E 002°16'2710.8
2020-Aug-07 01:01N 41°33' E 002°47'1610.4
2020-Aug-06 23:31N 41°42' E 003°04'20 9.8
2020-Aug-06 21:30N 41°54' E 003°24'5610.1
2020-Aug-06 16:00N 42°34' E 004°17'2610.4
2020-Aug-06 13:31N 42°53' E 004°42'39 2.1
2020-Aug-05 19:08N 43°21' E 005°20'0 0.0
2020-Aug-05 17:29N 43°21' E 005°20'  
2020-Aug-02 06:29N 43°21' E 005°20'0 0.0
2020-Aug-02 04:59N 43°21' E 005°20'0 0.0
2020-Aug-02 04:29N 43°21' E 005°20'0 0.0
2020-Aug-02 03:59N 43°21' E 005°20'0 0.0
2020-Aug-02 02:59N 43°21' E 005°20'0 0.0
2020-Aug-02 01:59N 43°21' E 005°20'0 0.0
2020-Aug-02 00:59N 43°21' E 005°20'0 0.0
2020-Aug-01 22:29N 43°21' E 005°20'0 0.0
2020-Aug-01 15:59N 43°21' E 005°20'0 0.0
2020-Aug-01 13:59N 43°21' E 005°20'0 0.0
2020-Jul-31 17:47N 43°21' E 005°20'0 0.0
2020-Jul-31 15:26N 43°21' E 005°20'  
Track history (hours):
 
Tides and Currents Weather Stations Pressure Air Temp Water Temp Dewpoint Dewpoint Depression Visibility Wind Speed Wind Dir Waves Ship Positions

Silver Shadow

Operator: V Ships Leisure SAM

Last reported at 2020-Aug-07 22:00 UTC. Time now 2020-Aug-09 04:47 UTC.
Position N 42°25' E 004°09'.

Length 186 m; draft 6.2 m.

Type: Ship. MMSI: 308628000.

Date/timePositionNaut miles runAvg speedWind from/ knotsBaromVisibWave heightAir tempDewpointWater temp
2020-Aug-07 22:00N 42°25' E 004°09'2510.1
2020-Aug-07 19:30N 42°08' E 003°45'3010.0
2020-Aug-07 16:29N 41°46' E 003°16'2510.3
2020-Aug-07 14:00N 41°33' E 002°47'1010.1
2020-Aug-07 13:00N 41°28' E 002°36'510.1
2020-Aug-07 12:30N 41°25' E 002°30'16 8.0
2020-Aug-07 10:30N 41°20' E 002°10'2 2.4
2020-Aug-07 09:40N 41°22' E 002°11'0 0.0
2020-Aug-07 06:28N 41°22' E 002°11'0 0.0
2020-Aug-07 05:01N 41°22' E 002°11'1 2.5
2020-Aug-07 04:31N 41°21' E 002°10'3 6.6
2020-Aug-07 04:01N 41°17' E 002°11'4 7.8
2020-Aug-07 03:31N 41°18' E 002°16'2710.8
2020-Aug-07 01:01N 41°33' E 002°47'1610.4
2020-Aug-06 23:31N 41°42' E 003°04'20 9.8
2020-Aug-06 21:30N 41°54' E 003°24'5610.1
2020-Aug-06 16:00N 42°34' E 004°17'2610.4
2020-Aug-06 13:31N 42°53' E 004°42'39 2.1
2020-Aug-05 19:08N 43°21' E 005°20'0 0.0
2020-Aug-05 17:29N 43°21' E 005°20'  
2020-Aug-02 06:29N 43°21' E 005°20'0 0.0
2020-Aug-02 04:59N 43°21' E 005°20'0 0.0
2020-Aug-02 04:29N 43°21' E 005°20'0 0.0
2020-Aug-02 03:59N 43°21' E 005°20'0 0.0
2020-Aug-02 02:59N 43°21' E 005°20'0 0.0
2020-Aug-02 01:59N 43°21' E 005°20'0 0.0
2020-Aug-02 00:59N 43°21' E 005°20'0 0.0
2020-Aug-01 22:29N 43°21' E 005°20'0 0.0
2020-Aug-01 15:59N 43°21' E 005°20'0 0.0
2020-Aug-01 13:59N 43°21' E 005°20'0 0.0
2020-Jul-31 17:47N 43°21' E 005°20'0 0.0
2020-Jul-31 15:26N 43°21' E 005°20'  

Dump ship's entire track history